Time;durP1;ratioP1;P1;durP2;ratioP2;P2;SDS_P1;SDS_P2;PMS_P1;PMS_P2;Temp;Humidity;BMP_temperature;BMP_pressure;BME280_temperature;BME280_humidity;BME280_pressure;Samples;Min_cycle;Max_cycle;Signal;HPM_P1;HPM_P2
2022/03/15 00:00:29;;;;;;;12.27;4.93;;;;;;;3.92;61.13;101183.88;10309618;28;20056;-75
2022/03/15 00:05:31;;;;;;;9.52;4.28;;;;;;;3.77;61.29;101184.88;10309388;28;20050;-75
2022/03/15 00:10:33;;;;;;;10.18;4.90;;;;;;;3.74;61.44;101182.31;10309903;28;20526;-75
2022/03/15 00:15:36;;;;;;;9.90;4.63;;;;;;;3.58;61.76;101170.44;10309478;28;20100;-75
2022/03/15 00:20:38;;;;;;;12.32;4.25;;;;;;;3.65;61.63;101174.69;10308654;28;20059;-75
2022/03/15 00:25:40;;;;;;;11.07;5.65;;;;;;;3.56;61.89;101172.19;10309301;28;20782;-75
2022/03/15 00:30:41;;;;;;;10.10;4.57;;;;;;;3.61;61.88;101178.19;10309020;28;20460;-75
2022/03/15 00:35:43;;;;;;;8.43;4.70;;;;;;;3.69;61.84;101175.50;10306628;28;20053;-75
2022/03/15 00:40:45;;;;;;;15.45;6.97;;;;;;;3.71;61.65;101168.56;10308968;28;20060;-75
2022/03/15 00:45:47;;;;;;;11.95;4.32;;;;;;;3.68;61.59;101166.03;10308100;28;20050;-75
2022/03/15 00:50:48;;;;;;;9.20;3.95;;;;;;;3.70;61.42;101166.88;10307560;28;20046;-75
2022/03/15 00:55:50;;;;;;;10.68;3.80;;;;;;;3.68;61.55;101164.28;10307591;28;20054;-75
2022/03/15 01:00:52;;;;;;;12.25;5.60;;;;;;;3.58;61.74;101162.69;10307641;28;20058;-75
2022/03/15 01:05:53;;;;;;;8.95;4.90;;;;;;;3.49;61.75;101162.81;10305934;28;20215;-75
2022/03/15 01:10:57;;;;;;;9.45;4.45;;;;;;;3.46;61.86;101159.38;10290029;28;20530;-75
2022/03/15 01:15:59;;;;;;;12.38;5.50;;;;;;;3.40;62.07;101168.06;10289830;28;20068;-75
2022/03/15 01:21:01;;;;;;;11.05;4.75;;;;;;;3.45;62.15;101163.72;10306081;28;20046;-75
2022/03/15 01:26:03;;;;;;;13.88;4.63;;;;;;;3.55;61.88;101165.31;10306126;28;20068;-75
2022/03/15 01:31:49;;;;;;;10.63;4.75;;;;;;;3.53;62.16;101151.56;10307152;28;20174;-75
2022/03/15 01:36:50;;;;;;;11.85;3.80;;;;;;;3.51;61.85;101142.97;10305645;28;20056;-75
2022/03/15 01:41:52;;;;;;;11.05;4.18;;;;;;;3.53;62.08;101151.56;10305890;28;20052;-75
2022/03/15 01:46:54;;;;;;;8.30;4.00;;;;;;;3.53;61.87;101141.22;10305738;28;20058;-75
2022/03/15 01:51:55;;;;;;;11.77;5.07;;;;;;;3.40;61.88;101139.63;10305366;28;20042;-75
2022/03/15 01:56:57;;;;;;;9.98;4.30;;;;;;;3.31;62.32;101133.72;10305555;28;20058;-75
2022/03/15 02:01:59;;;;;;;12.00;4.25;;;;;;;3.39;62.09;101132.75;10288382;28;20511;-75
2022/03/15 02:07:10;;;;;;;9.30;4.35;;;;;;;3.41;62.22;101146.53;10304587;28;20050;-75
2022/03/15 02:12:12;;;;;;;11.30;4.05;;;;;;;3.37;62.06;101141.41;10305709;28;20046;-75
2022/03/15 02:17:14;;;;;;;8.68;3.85;;;;;;;3.39;61.78;101137.94;10305217;28;20475;-75
2022/03/15 02:22:15;;;;;;;8.77;4.10;;;;;;;3.39;61.97;101132.75;10304482;28;20042;-75
2022/03/15 02:27:20;;;;;;;8.02;4.18;;;;;;;3.30;62.04;101119.06;10304535;28;20204;-75
2022/03/15 02:32:22;;;;;;;7.10;3.88;;;;;;;3.31;62.25;101115.63;10285172;28;20137;-75
2022/03/15 02:37:24;;;;;;;12.15;4.60;;;;;;;3.29;62.05;101102.72;10308243;28;20058;-75
2022/03/15 02:42:26;;;;;;;8.88;4.20;;;;;;;3.22;62.48;101102.78;10311830;28;20116;-75
2022/03/15 02:47:28;;;;;;;10.35;4.38;;;;;;;3.29;62.55;101105.31;10313223;28;20060;-75
2022/03/15 02:52:30;;;;;;;14.25;4.68;;;;;;;3.32;62.49;101100.06;10312488;28;20054;-75
2022/03/15 02:57:32;;;;;;;11.35;4.50;;;;;;;3.18;62.42;101085.59;10311609;28;20056;-75
2022/03/15 03:02:35;;;;;;;14.90;4.90;;;;;;;3.17;62.59;101084.75;10315347;28;20134;-75
2022/03/15 03:07:38;;;;;;;9.93;4.93;;;;;;;3.31;62.55;101095.78;10318856;28;20062;-75
2022/03/15 03:12:41;;;;;;;12.65;4.45;;;;;;;3.32;62.18;101087.16;10318944;28;20137;-75
2022/03/15 03:17:44;;;;;;;9.10;4.88;;;;;;;3.28;62.36;101089.78;10319741;28;20125;-75
2022/03/15 03:22:46;;;;;;;8.60;4.05;;;;;;;3.09;62.46;101088.28;10318812;28;20050;-75
2022/03/15 03:27:48;;;;;;;12.20;4.85;;;;;;;3.04;62.86;101086.63;10318715;28;20058;-75
2022/03/15 03:32:50;;;;;;;10.88;4.25;;;;;;;3.16;62.58;101088.19;10318970;28;20133;-75
2022/03/15 03:37:51;;;;;;;10.27;4.68;;;;;;;3.22;62.61;101075.22;10301192;28;20058;-75
2022/03/15 03:42:53;;;;;;;10.20;4.57;;;;;;;3.22;62.52;101082.09;10317674;28;20730;-75
2022/03/15 03:47:55;;;;;;;8.73;3.72;;;;;;;3.14;62.62;101078.75;10299846;28;20138;-75
2022/03/15 03:52:57;;;;;;;10.23;3.78;;;;;;;3.21;62.47;101075.22;10317770;28;20084;-75
2022/03/15 03:58:00;;;;;;;11.32;5.22;;;;;;;3.20;62.61;101089.88;10317936;28;20136;-75
2022/03/15 04:03:03;;;;;;;11.70;4.28;;;;;;;3.21;62.80;101081.28;10298108;28;20057;-75
2022/03/15 04:08:05;;;;;;;11.02;3.83;;;;;;;3.24;62.51;101081.22;10295227;28;20042;-75
2022/03/15 04:13:09;;;;;;;12.30;4.25;;;;;;;3.29;62.45;101081.16;10309893;28;20120;-75
2022/03/15 04:18:12;;;;;;;8.05;3.90;;;;;;;3.23;62.54;101076.06;10309921;28;20057;-75
2022/03/15 04:23:14;;;;;;;13.73;5.30;;;;;;;3.30;62.47;101075.09;10309998;28;20971;-75
2022/03/15 04:28:16;;;;;;;10.15;3.85;;;;;;;3.36;62.25;101070.72;10309662;28;20160;-75
2022/03/15 04:33:18;;;;;;;9.20;3.88;;;;;;;3.25;62.58;101061.41;10309180;28;20054;-75
2022/03/15 04:38:20;;;;;;;9.23;4.13;;;;;;;3.25;62.49;101064.84;10310267;28;20056;-75
2022/03/15 04:43:22;;;;;;;9.00;4.57;;;;;;;2.95;62.81;101054.84;10308332;28;20065;-75
2022/03/15 04:48:24;;;;;;;9.00;4.88;;;;;;;3.00;63.27;101056.50;10309126;28;20054;-75
2022/03/15 04:53:25;;;;;;;16.92;6.47;;;;;;;3.09;63.19;101044.34;10291509;28;20056;-75
2022/03/15 04:58:27;;;;;;;10.52;5.30;;;;;;;3.11;62.98;101050.38;10307590;28;20068;-75
2022/03/15 05:03:29;;;;;;;14.25;5.50;;;;;;;3.22;62.73;101051.06;10307533;28;20050;-75
2022/03/15 05:08:31;;;;;;;10.45;6.53;;;;;;;3.31;62.82;101045.81;10308911;28;20089;-75
2022/03/15 05:13:45;;;;;;;7.82;4.68;;;;;;;3.30;62.93;101039.78;10307529;28;20048;-75
2022/03/15 05:18:50;;;;;;;7.80;4.35;;;;;;;3.32;62.62;101038.03;10307811;28;20567;-75
2022/03/15 05:23:53;;;;;;;10.50;5.28;;;;;;;3.41;62.66;101037.06;10289856;28;20511;-75
2022/03/15 05:28:55;;;;;;;13.27;6.13;;;;;;;3.41;62.61;101026.72;10307540;28;20057;-75
2022/03/15 05:33:57;;;;;;;9.75;5.32;;;;;;;3.40;62.59;101030.16;10307281;28;20090;-75
2022/03/15 05:38:58;;;;;;;11.68;5.00;;;;;;;3.25;62.67;101025.22;10307003;28;20171;-75
2022/03/15 05:44:00;;;;;;;13.50;5.75;;;;;;;3.16;62.90;101030.47;10305139;28;20116;-75
2022/03/15 05:49:02;;;;;;;12.95;6.05;;;;;;;3.25;62.92;101031.25;10306702;28;20093;-75
2022/03/15 05:54:04;;;;;;;9.20;4.47;;;;;;;3.24;62.99;101026.94;10306021;28;20149;-75
2022/03/15 05:59:06;;;;;;;12.00;5.03;;;;;;;3.22;63.19;101027.81;10305718;28;20471;-75
2022/03/15 06:04:10;;;;;;;11.65;6.05;;;;;;;3.22;63.03;101020.06;10306219;28;21079;-75
2022/03/15 06:09:12;;;;;;;10.50;5.75;;;;;;;3.38;63.02;101017.25;10305973;28;20050;-75
2022/03/15 06:14:13;;;;;;;14.48;5.90;;;;;;;3.51;63.05;101023.13;10305028;28;20137;-75
2022/03/15 06:19:15;;;;;;;11.85;6.30;;;;;;;3.50;62.74;101013.66;10305645;28;20157;-75
2022/03/15 06:24:17;;;;;;;17.58;8.30;;;;;;;3.55;62.89;101002.38;10305487;28;20508;-75
2022/03/15 06:29:19;;;;;;;12.05;5.95;;;;;;;3.57;62.92;100998.03;10304921;28;20085;-75
2022/03/15 06:34:21;;;;;;;15.73;7.45;;;;;;;3.67;62.96;101004.78;10306039;28;20145;-74
2022/03/15 06:39:23;;;;;;;14.80;7.65;;;;;;;3.80;62.59;100995.94;10305626;28;20062;-75
2022/03/15 06:44:25;;;;;;;12.80;6.25;;;;;;;3.96;62.41;100995.75;10304330;28;20128;-75
2022/03/15 06:49:27;;;;;;;14.63;6.13;;;;;;;3.95;62.20;100989.72;10305134;28;20054;-75
2022/03/15 06:54:30;;;;;;;16.42;6.85;;;;;;;4.13;62.23;100991.16;10288523;28;20128;-75
2022/03/15 06:59:31;;;;;;;11.95;6.43;;;;;;;4.26;62.00;100990.06;10302859;28;20141;-75
2022/03/15 07:04:34;;;;;;;14.73;6.13;;;;;;;4.42;61.62;100987.19;10304608;28;20042;-75
2022/03/15 07:09:35;;;;;;;17.58;6.85;;;;;;;4.36;61.70;100984.72;10304736;28;20058;-75
2022/03/15 07:14:38;;;;;;;13.93;7.30;;;;;;;4.40;61.79;100976.00;10303808;28;21201;-75
2022/03/15 07:19:40;;;;;;;13.10;6.50;;;;;;;4.57;61.79;100966.19;10304299;28;20050;-75
2022/03/15 07:24:41;;;;;;;15.23;6.85;;;;;;;4.80;61.69;100972.66;10309452;28;20046;-75
2022/03/15 07:29:43;;;;;;;15.57;7.95;;;;;;;5.06;61.40;100955.69;10311413;28;20050;-75
2022/03/15 07:34:45;;;;;;;14.85;7.40;;;;;;;5.26;60.95;100961.31;10311812;28;20575;-75
2022/03/15 07:39:46;;;;;;;14.75;8.15;;;;;;;5.14;60.91;100942.56;10309885;28;20050;-75
2022/03/15 07:44:49;;;;;;;12.20;7.40;;;;;;;5.17;61.13;100943.34;10309445;28;20165;-75
2022/03/15 07:49:51;;;;;;;12.73;6.65;;;;;;;5.01;61.37;100935.91;10310388;28;20054;-75
2022/03/15 07:54:53;;;;;;;10.25;6.13;;;;;;;5.26;61.26;100939.69;10311526;28;20052;-75
2022/03/15 07:59:55;;;;;;;10.15;5.72;;;;;;;5.25;61.34;100925.88;10293479;28;20559;-75
2022/03/15 08:04:58;;;;;;;9.63;6.18;;;;;;;5.21;61.40;100923.38;10310816;28;20162;-75
2022/03/15 08:10:00;;;;;;;13.07;6.90;;;;;;;5.18;61.34;100911.34;10310172;28;20061;-75
2022/03/15 08:15:03;;;;;;;15.15;7.90;;;;;;;5.28;61.08;100899.88;10309898;28;20137;-75
2022/03/15 08:20:06;;;;;;;17.73;8.35;;;;;;;5.33;60.81;100902.38;10309318;28;20066;-75
2022/03/15 08:25:08;;;;;;;16.38;8.35;;;;;;;5.44;60.70;100890.84;10301976;28;20133;-74
2022/03/15 08:30:32;;;;;;;16.25;8.13;;;;;;;5.65;60.46;100880.84;10288765;28;20073;-75
2022/03/15 08:35:34;;;;;;;14.00;7.00;;;;;;;5.90;59.96;100882.78;10305104;28;20082;-75
2022/03/15 08:40:35;;;;;;;15.27;7.97;;;;;;;5.93;59.98;100874.94;10306160;28;20193;-75
2022/03/15 08:45:38;;;;;;;14.35;8.20;;;;;;;5.71;60.05;100873.78;10297680;28;20054;-75
2022/03/15 08:50:40;;;;;;;17.70;8.05;;;;;;;5.98;59.88;100867.84;10285942;28;20050;-75
2022/03/15 08:55:42;;;;;;;12.32;8.07;;;;;;;6.05;59.39;100861.63;10304845;28;20073;-75
2022/03/15 09:00:44;;;;;;;13.27;8.35;;;;;;;6.05;59.64;100865.94;10305484;28;20951;-75
2022/03/15 09:05:46;;;;;;;21.20;12.90;;;;;;;6.17;59.56;100861.28;10304263;28;20050;-75
2022/03/15 09:10:50;;;;;;;14.05;8.23;;;;;;;6.26;59.12;100863.69;10285093;28;20416;-75
2022/03/15 09:15:52;;;;;;;17.52;8.23;;;;;;;6.44;58.90;100848.47;10304587;28;20133;-75
2022/03/15 09:20:54;;;;;;;14.98;8.23;;;;;;;6.24;58.94;100836.00;10304427;28;20064;-75
2022/03/15 09:25:56;;;;;;;15.00;8.00;;;;;;;6.17;59.29;100832.72;10305776;28;20133;-75
2022/03/15 09:31:04;;;;;;;15.00;8.90;;;;;;;6.36;59.02;100833.09;10300084;28;20054;-75
2022/03/15 09:36:07;;;;;;;32.22;10.45;;;;;;;6.40;58.97;100839.06;10304449;28;20174;-75
2022/03/15 09:41:09;;;;;;;24.05;11.65;;;;;;;6.62;58.39;100828.00;10304760;28;20149;-74
2022/03/15 09:46:13;;;;;;;18.42;8.95;;;;;;;6.56;58.67;100825.56;10286438;28;20144;-75
2022/03/15 09:51:36;;;;;;;15.90;8.52;;;;;;;6.59;58.71;100819.44;10303712;28;20054;-75
2022/03/15 09:56:40;;;;;;;16.25;8.50;;;;;;;6.54;58.77;100831.72;10282607;28;20141;-74
2022/03/15 10:01:44;;;;;;;10.80;7.60;;;;;;;6.57;58.84;100829.88;10296731;28;20062;-74
2022/03/15 10:06:46;;;;;;;16.05;9.93;;;;;;;6.73;58.60;100825.09;10302273;28;20057;-74
2022/03/15 10:11:50;;;;;;;14.73;8.07;;;;;;;6.83;58.26;100813.50;10303934;28;20677;-74
2022/03/15 10:17:01;;;;;;;13.68;8.13;;;;;;;6.75;58.26;100800.75;10303893;28;20050;-74
2022/03/15 10:22:08;;;;;;;18.58;9.80;;;;;;;6.76;58.89;100797.25;10286619;28;20046;-76
2022/03/15 10:27:10;;;;;;;21.73;9.40;;;;;;;6.86;58.35;100792.59;10286466;28;20145;-76
2022/03/15 10:32:14;;;;;;;18.17;8.63;;;;;;;7.02;58.20;100773.88;10303138;28;20453;-76
2022/03/15 10:37:16;;;;;;;18.33;9.55;;;;;;;7.21;57.98;100768.94;10304072;28;20149;-76
2022/03/15 10:42:22;;;;;;;21.67;9.00;;;;;;;7.19;58.57;100761.19;10302694;28;20863;-76
2022/03/15 10:47:25;;;;;;;16.20;8.30;;;;;;;7.31;58.33;100754.72;10301971;28;20133;-77
2022/03/15 10:52:34;;;;;;;20.23;9.70;;;;;;;7.34;59.17;100754.63;10302916;28;20069;-77
2022/03/15 10:57:59;;;;;;;19.40;11.60;;;;;;;7.29;60.09;100746.13;10303536;28;20068;-77
2022/03/15 11:03:00;;;;;;;20.77;11.30;;;;;;;7.24;59.67;100740.22;10311810;28;20081;-77
2022/03/15 11:15:01;;;;;;;16.85;9.93;;;;;;;7.03;60.34;100733.13;10305034;28;20034;-77
2022/03/15 11:20:01;;;;;;;15.23;8.88;;;;;;;6.94;60.38;100733.41;10302616;28;20046;-77
2022/03/15 11:25:17;;;;;;;15.45;10.43;;;;;;;7.00;61.47;100725.41;10303109;28;20890;-77
2022/03/15 11:30:20;;;;;;;19.95;11.32;;;;;;;7.10;61.22;100711.22;10300777;28;20116;-77
2022/03/15 11:35:23;;;;;;;26.85;13.05;;;;;;;6.90;62.01;100698.00;10286818;28;20046;-78
2022/03/15 11:40:26;;;;;;;25.25;14.10;;;;;;;6.73;62.83;100687.31;10311930;28;20133;-78
2022/03/15 11:45:31;;;;;;;22.77;14.73;;;;;;;6.61;63.68;100683.38;10294991;28;20046;-78
2022/03/15 11:50:59;;;;;;;23.13;13.10;;;;;;;6.68;63.37;100677.06;10311746;28;20137;-78
2022/03/15 11:56:23;;;;;;;21.90;12.90;;;;;;;6.49;64.55;100656.91;10308627;28;20117;-77
2022/03/15 12:01:25;;;;;;;23.60;14.13;;;;;;;6.40;64.26;100641.59;10296800;28;20069;-78
2022/03/15 12:06:30;;;;;;;23.33;15.02;;;;;;;6.40;64.74;100624.28;10303884;28;20134;-78
2022/03/15 12:11:37;;;;;;;29.42;16.13;;;;;;;6.38;65.26;100612.22;10304639;28;20265;-78
2022/03/15 12:16:41;;;;;;;26.30;14.80;;;;;;;6.37;64.90;100594.94;10309550;28;20058;-78
2022/03/15 12:21:51;;;;;;;25.38;14.73;;;;;;;6.38;65.03;100581.03;10308679;28;20656;-77
2022/03/15 12:27:07;;;;;;;23.13;14.63;;;;;;;6.38;65.39;100581.91;10291134;28;20504;-77
2022/03/15 12:32:14;;;;;;;26.15;15.00;;;;;;;6.54;64.65;100582.25;10308104;28;20074;-77
2022/03/15 12:37:37;;;;;;;23.02;15.77;;;;;;;6.57;65.31;100569.97;10306524;28;20157;-77
2022/03/15 12:42:51;;;;;;;32.45;19.38;;;;;;;6.46;66.04;100560.84;10307494;28;20050;-77
2022/03/15 12:48:03;;;;;;;31.83;20.05;;;;;;;6.35;66.43;100566.41;10307293;28;20189;-77
2022/03/15 12:53:39;;;;;;;30.92;17.80;;;;;;;6.46;66.46;100551.31;10306502;28;20503;-77
2022/03/15 12:58:44;;;;;;;28.33;15.38;;;;;;;6.48;65.68;100554.72;10290312;28;20182;-77
2022/03/15 13:03:51;;;;;;;27.55;17.10;;;;;;;6.59;65.61;100533.56;10305136;28;20158;-77
2022/03/15 13:08:55;;;;;;;27.13;17.17;;;;;;;6.60;65.73;100530.91;10305754;28;20050;-78
2022/03/15 13:14:01;;;;;;;24.17;13.38;;;;;;;6.73;65.54;100520.97;10290682;28;20912;-77
2022/03/15 13:19:04;;;;;;;28.00;16.50;;;;;;;6.90;65.38;100514.25;10306631;28;20716;-78
2022/03/15 13:24:10;;;;;;;21.77;14.13;;;;;;;6.77;65.92;100517.34;10287554;28;20141;-77
2022/03/15 13:29:13;;;;;;;28.60;15.23;;;;;;;6.79;65.99;100505.16;10289131;28;20077;-78
2022/03/15 13:34:25;;;;;;;26.92;15.63;;;;;;;6.76;66.85;100490.50;10306054;28;20133;-77
2022/03/15 13:39:27;;;;;;;28.73;17.20;;;;;;;6.81;66.71;100479.94;10304444;28;20185;-78
2022/03/15 13:44:32;;;;;;;24.85;14.45;;;;;;;6.93;66.54;100466.50;10287779;28;20054;-78
2022/03/15 13:49:38;;;;;;;21.65;13.60;;;;;;;6.97;66.94;100460.28;10306803;28;20076;-78
2022/03/15 13:55:04;;;;;;;21.48;13.05;;;;;;;7.13;66.96;100451.00;10305375;28;20159;-78
2022/03/15 14:00:13;;;;;;;16.88;10.95;;;;;;;7.27;66.39;100443.53;10301979;28;20153;-78
2022/03/15 14:05:19;;;;;;;17.48;11.75;;;;;;;7.12;67.04;100442.34;10299370;28;21010;-79
2022/03/15 14:10:21;;;;;;;18.80;11.68;;;;;;;7.14;66.49;100445.72;10305347;28;21002;-78
2022/03/15 14:15:29;;;;;;;22.55;14.50;;;;;;;7.31;66.60;100442.50;10285260;28;20738;-78
2022/03/15 14:20:33;;;;;;;26.88;16.23;;;;;;;7.53;66.21;100445.97;10305374;28;20064;-78
2022/03/15 14:25:36;;;;;;;15.60;10.55;;;;;;;7.41;66.18;100435.19;10285591;28;20056;-78
2022/03/15 14:30:40;;;;;;;18.77;10.88;;;;;;;7.37;65.98;100446.59;10304785;28;20054;-78
2022/03/15 14:35:43;;;;;;;17.90;10.45;;;;;;;7.18;66.38;100436.91;10303782;28;20050;-77
2022/03/15 14:40:50;;;;;;;16.25;10.30;;;;;;;7.13;66.51;100440.59;10286740;28;20084;-78
2022/03/15 14:45:56;;;;;;;18.55;12.02;;;;;;;7.08;66.61;100448.56;10287378;28;20133;-79
2022/03/15 14:51:00;;;;;;;14.57;10.55;;;;;;;7.14;66.68;100450.13;10289328;28;20081;-79
2022/03/15 14:56:02;;;;;;;18.00;11.75;;;;;;;7.03;66.76;100440.09;10307320;28;20137;-79
2022/03/15 15:01:06;;;;;;;17.75;10.63;;;;;;;7.17;66.59;100432.63;10304955;28;20062;-80
2022/03/15 15:06:09;;;;;;;19.90;12.27;;;;;;;7.28;66.50;100432.22;10291459;28;20057;-79
2022/03/15 15:11:12;;;;;;;20.00;13.57;;;;;;;7.49;66.25;100427.94;10309069;28;20062;-80
2022/03/15 15:16:14;;;;;;;17.35;11.57;;;;;;;7.88;65.85;100419.38;10308003;28;20137;-79
2022/03/15 15:21:21;;;;;;;17.35;11.20;;;;;;;7.77;65.34;100418.13;10308520;28;20426;-80
2022/03/15 15:26:23;;;;;;;15.73;8.52;;;;;;;7.75;64.87;100409.53;10307250;28;20145;-79
2022/03/15 15:31:26;;;;;;;12.48;8.77;;;;;;;7.57;65.02;100428.50;10309340;28;20133;-80
2022/03/15 15:36:29;;;;;;;14.98;10.25;;;;;;;7.50;65.66;100440.03;10307659;28;20787;-79
2022/03/15 15:41:37;;;;;;;16.60;10.38;;;;;;;7.33;66.31;100445.88;10305597;28;20058;-79
2022/03/15 15:46:40;;;;;;;12.27;8.80;;;;;;;7.25;66.11;100441.88;10314334;28;20096;-80
2022/03/15 15:51:45;;;;;;;11.77;8.60;;;;;;;7.36;65.68;100450.13;10315961;28;20060;-79
2022/03/15 15:56:51;;;;;;;13.93;8.75;;;;;;;7.28;65.71;100463.44;10314096;28;20136;-79
2022/03/15 16:01:54;;;;;;;10.68;7.50;;;;;;;7.11;65.75;100453.66;10310551;28;20058;-79
2022/03/15 16:06:58;;;;;;;16.63;9.13;;;;;;;7.21;65.96;100446.34;10316086;28;20057;-79
2022/03/15 16:12:00;;;;;;;13.70;9.50;;;;;;;7.19;65.65;100456.84;10315031;28;20050;-79
2022/03/15 16:17:05;;;;;;;14.80;9.45;;;;;;;7.13;65.89;100451.84;10313967;28;20105;-80
2022/03/15 16:22:07;;;;;;;14.38;9.70;;;;;;;7.06;65.86;100457.34;10297675;28;20056;-80
2022/03/15 16:27:09;;;;;;;16.20;10.52;;;;;;;6.95;66.42;100469.88;10297846;28;20090;-79
2022/03/15 16:32:26;;;;;;;14.07;9.55;;;;;;;6.94;66.95;100478.56;10313993;28;20093;-80
2022/03/15 16:37:28;;;;;;;12.43;9.52;;;;;;;6.94;66.37;100483.78;10297678;28;20144;-78
2022/03/15 16:42:31;;;;;;;14.80;9.32;;;;;;;6.90;66.65;100487.41;10310108;28;20180;-78
2022/03/15 16:47:33;;;;;;;16.60;10.60;;;;;;;6.88;66.74;100494.41;10309627;28;20661;-78
2022/03/15 16:52:35;;;;;;;18.05;11.90;;;;;;;6.91;66.97;100499.50;10310270;28;20511;-78
2022/03/15 16:57:37;;;;;;;17.75;11.23;;;;;;;6.98;66.72;100507.03;10292465;28;20154;-78
2022/03/15 17:02:39;;;;;;;14.32;10.20;;;;;;;6.99;66.56;100515.69;10310508;28;20151;-77
2022/03/15 17:07:43;;;;;;;15.57;10.75;;;;;;;6.97;66.75;100520.09;10310416;28;20921;-79
2022/03/15 17:12:49;;;;;;;13.82;9.70;;;;;;;7.04;66.00;100526.78;10291105;28;20136;-78
2022/03/15 17:17:52;;;;;;;17.30;10.55;;;;;;;7.10;65.98;100537.78;10303566;28;20150;-79
2022/03/15 17:22:58;;;;;;;20.25;12.30;;;;;;;7.18;66.01;100540.13;10304715;28;20050;-79
2022/03/15 17:28:03;;;;;;;18.13;11.65;;;;;;;7.24;65.53;100549.47;10309335;28;20050;-78
2022/03/15 17:33:05;;;;;;;18.98;13.70;;;;;;;7.27;65.65;100558.00;10306839;28;20057;-78
2022/03/15 17:38:19;;;;;;;23.35;15.63;;;;;;;7.28;65.77;100564.06;10308462;28;20060;-78
2022/03/15 17:43:24;;;;;;;20.70;14.98;;;;;;;7.25;65.73;100571.94;10309491;28;20069;-78
2022/03/15 17:48:26;;;;;;;30.98;19.88;;;;;;;7.28;65.85;100558.84;10309169;28;20057;-79
2022/03/15 17:53:30;;;;;;;63.15;31.85;;;;;;;7.23;66.36;100563.34;10310317;28;20046;-79
2022/03/15 17:58:32;;;;;;;26.38;17.98;;;;;;;7.19;66.34;100558.28;10306737;28;20076;-79
2022/03/15 18:03:35;;;;;;;20.42;15.43;;;;;;;7.20;66.14;100574.75;10291342;28;20061;-78
2022/03/15 18:08:38;;;;;;;22.08;16.42;;;;;;;7.06;66.10;100583.00;10290147;28;20172;-79
2022/03/15 18:13:40;;;;;;;22.10;16.77;;;;;;;6.99;66.24;100593.69;10306906;28;20060;-79
2022/03/15 18:18:43;;;;;;;23.48;17.52;;;;;;;7.00;66.60;100596.22;10304785;28;20058;-79
2022/03/15 18:23:46;;;;;;;16.98;12.35;;;;;;;7.04;66.17;100597.00;10303662;28;20455;-79
2022/03/15 18:28:57;;;;;;;17.05;13.20;;;;;;;7.15;65.98;100594.84;10302073;28;20057;-79
2022/03/15 18:33:59;;;;;;;23.73;16.45;;;;;;;7.17;65.95;100596.50;10305942;28;20140;-78
2022/03/15 18:39:03;;;;;;;58.25;31.75;;;;;;;7.14;66.18;100603.56;10307600;28;20496;-79
2022/03/15 18:44:08;;;;;;;35.67;25.30;;;;;;;7.15;65.96;100603.50;10309577;28;20125;-79
2022/03/15 18:49:11;;;;;;;25.00;19.90;;;;;;;7.13;65.93;100612.25;10307620;28;20137;-79
2022/03/15 18:54:14;;;;;;;41.53;29.05;;;;;;;7.15;66.02;100624.31;10301403;28;20050;-79
2022/03/15 18:59:17;;;;;;;49.50;27.35;;;;;;;7.12;66.00;100623.59;10305248;28;20095;-79
2022/03/15 19:04:20;;;;;;;72.20;37.78;;;;;;;7.10;66.12;100615.00;10307376;28;20133;-79
2022/03/15 19:09:22;;;;;;;61.25;34.35;;;;;;;7.03;66.43;100613.50;10284478;28;20468;-79
2022/03/15 19:14:29;;;;;;;50.60;31.02;;;;;;;7.01;66.39;100621.34;10305527;28;20486;-79
2022/03/15 19:19:33;;;;;;;47.95;29.45;;;;;;;7.09;66.41;100628.88;10305666;28;20062;-79
2022/03/15 19:24:38;;;;;;;31.90;21.33;;;;;;;7.04;65.97;100628.22;10314112;28;20054;-80
2022/03/15 19:29:42;;;;;;;43.08;27.27;;;;;;;7.01;66.35;100628.28;10314462;28;20534;-79
2022/03/15 19:34:44;;;;;;;46.30;29.80;;;;;;;7.05;66.30;100637.69;10314569;28;20065;-79
2022/03/15 19:39:47;;;;;;;47.92;30.95;;;;;;;7.07;66.25;100636.75;10314235;28;20120;-76
2022/03/15 19:44:48;;;;;;;74.03;36.90;;;;;;;7.03;66.27;100639.50;10313738;28;20074;-76
2022/03/15 19:49:50;;;;;;;63.53;32.97;;;;;;;6.99;66.42;100649.16;10309549;28;20145;-76
2022/03/15 19:54:52;;;;;;;76.72;32.75;;;;;;;6.89;66.71;100659.91;10292617;28;20133;-76
2022/03/15 19:59:58;;;;;;;46.05;28.35;;;;;;;6.81;67.09;100662.78;10308824;28;20073;-76
2022/03/15 20:05:00;;;;;;;72.78;35.65;;;;;;;6.78;67.15;100656.81;10309226;28;20156;-76
2022/03/15 20:10:08;;;;;;;78.97;37.13;;;;;;;6.85;66.93;100650.50;10306004;28;20054;-75
2022/03/15 20:15:12;;;;;;;34.53;23.80;;;;;;;6.82;66.75;100642.81;10305718;28;20550;-75
2022/03/15 20:20:21;;;;;;;61.70;32.67;;;;;;;6.74;66.54;100647.41;10308184;28;20046;-75
2022/03/15 20:25:27;;;;;;;63.70;31.60;;;;;;;6.56;66.56;100664.44;10287828;28;20053;-75
2022/03/15 20:30:30;;;;;;;86.63;35.28;;;;;;;6.33;66.57;100652.19;10308399;28;20157;-77
2022/03/15 20:35:36;;;;;;;138.93;33.78;;;;;;;6.11;66.73;100661.50;10307201;28;20137;-76
2022/03/15 20:40:39;;;;;;;480.30;50.90;;;;;;;5.91;67.01;100662.97;10306772;28;20085;-75
2022/03/15 20:45:46;;;;;;;1057.82;58.10;;;;;;;5.73;67.54;100664.38;10289194;28;20289;-76
2022/03/15 20:51:16;;;;;;;216.70;29.63;;;;;;;5.58;68.01;100675.16;10308458;28;20105;-75
2022/03/15 20:56:19;;;;;;;133.77;34.90;;;;;;;5.46;67.71;100671.16;10309067;28;20054;-75
2022/03/15 21:01:22;;;;;;;513.55;48.97;;;;;;;5.33;67.99;100685.34;10290400;28;20121;-76
2022/03/15 21:06:25;;;;;;;878.47;43.90;;;;;;;5.28;68.20;100691.56;10306037;28;20053;-76
2022/03/15 21:11:27;;;;;;;324.90;30.30;;;;;;;5.19;68.23;100696.97;10305083;28;20141;-76
2022/03/15 21:16:30;;;;;;;47.95;28.80;;;;;;;5.05;68.41;100694.72;10303318;28;20302;-76
2022/03/15 21:21:33;;;;;;;65.05;30.00;;;;;;;4.95;68.41;100702.75;10304626;28;20061;-75
2022/03/15 21:26:36;;;;;;;747.25;58.10;;;;;;;5.02;68.00;100714.69;10298521;28;20136;-75
2022/03/15 21:31:39;;;;;;;899.38;42.33;;;;;;;4.97;68.66;100711.34;10303217;28;20253;-75
2022/03/15 21:36:43;;;;;;;715.28;38.33;;;;;;;5.03;68.60;100717.25;10303924;28;20086;-76
2022/03/15 21:41:48;;;;;;;1113.57;64.65;;;;;;;5.06;68.34;100716.31;10303427;28;20094;-75
2022/03/15 21:46:50;;;;;;;794.83;47.45;;;;;;;5.05;68.08;100725.84;10306208;28;20104;-77
2022/03/15 21:51:51;;;;;;;824.55;53.42;;;;;;;5.05;67.96;100725.84;10304637;28;20244;-74
2022/03/15 21:56:55;;;;;;;514.50;33.38;;;;;;;5.02;68.13;100722.47;10303417;28;20057;-74
2022/03/15 22:01:59;;;;;;;417.58;27.63;;;;;;;4.95;68.41;100726.09;10302579;28;20050;-74
2022/03/15 22:07:01;;;;;;;552.78;31.38;;;;;;;4.92;68.20;100728.78;10283724;28;20117;-74
2022/03/15 22:12:04;;;;;;;606.33;30.88;;;;;;;4.88;68.36;100729.75;10287350;28;20153;-74
2022/03/15 22:17:06;;;;;;;933.35;50.35;;;;;;;4.66;68.57;100726.78;10303959;28;20158;-74
2022/03/15 22:22:11;;;;;;;568.90;31.40;;;;;;;4.65;68.65;100731.13;10297684;28;20050;-74
2022/03/15 22:27:13;;;;;;;690.20;33.13;;;;;;;4.56;68.79;100725.28;10301414;28;20185;-75
2022/03/15 23:25:26;;;;;;;551.15;26.55;;;;;;;4.33;68.66;100779.34;10309951;28;20042;-74
2022/03/15 23:30:28;;;;;;;448.15;21.23;;;;;;;4.27;69.16;100779.47;10309492;28;20128;-74
2022/03/15 23:35:30;;;;;;;1152.43;46.28;;;;;;;4.27;68.98;100780.28;10291855;28;21064;-75
2022/03/15 23:40:32;;;;;;;890.22;34.53;;;;;;;3.93;68.90;100786.19;10304326;28;20133;-74
2022/03/15 23:45:34;;;;;;;978.75;45.00;;;;;;;3.90;69.14;100789.69;10307577;28;20046;-74
2022/03/15 23:50:35;;;;;;;622.10;28.13;;;;;;;4.14;69.25;100786.63;10300563;28;20064;-75
2022/03/15 23:55:37;;;;;;;920.08;41.45;;;;;;;4.04;68.81;100784.25;10309221;28;20173;-76
